sensor_id;sensor_type;location;lat;lon;timestamp;temperature;humidity
47336;DHT22;33068;51.990;5.926;2023-04-24T00:02:02;9.20;99.90
47336;DHT22;33068;51.990;5.926;2023-04-24T00:07:50;9.50;99.90
47336;DHT22;33068;51.990;5.926;2023-04-24T00:10:27;9.50;99.90
47336;DHT22;33068;51.990;5.926;2023-04-24T00:13:52;9.50;99.90
47336;DHT22;33068;51.990;5.926;2023-04-24T00:16:54;9.50;99.90
47336;DHT22;33068;51.990;5.926;2023-04-24T00:19:53;9.50;99.90
47336;DHT22;33068;51.990;5.926;2023-04-24T00:22:45;9.50;99.90
47336;DHT22;33068;51.990;5.926;2023-04-24T00:25:48;9.50;99.90
47336;DHT22;33068;51.990;5.926;2023-04-24T00:28:46;9.50;99.90
47336;DHT22;33068;51.990;5.926;2023-04-24T00:31:42;9.50;99.90
47336;DHT22;33068;51.990;5.926;2023-04-24T00:34:21;9.50;99.90
47336;DHT22;33068;51.990;5.926;2023-04-24T00:37:03;9.50;99.90
47336;DHT22;33068;51.990;5.926;2023-04-24T00:40:06;9.50;99.90
47336;DHT22;33068;51.990;5.926;2023-04-24T00:42:35;9.50;99.90
47336;DHT22;33068;51.990;5.926;2023-04-24T00:45:35;9.10;99.90
47336;DHT22;33068;51.990;5.926;2023-04-24T00:48:32;9.40;99.90
47336;DHT22;33068;51.990;5.926;2023-04-24T00:51:04;9.40;99.90
47336;DHT22;33068;51.990;5.926;2023-04-24T00:54:04;9.40;99.90
47336;DHT22;33068;51.990;5.926;2023-04-24T00:56:35;9.40;99.90
47336;DHT22;33068;51.990;5.926;2023-04-24T00:59:27;9.40;99.90
47336;DHT22;33068;51.990;5.926;2023-04-24T01:02:23;9.40;99.90
47336;DHT22;33068;51.990;5.926;2023-04-24T01:04:59;9.40;99.90
47336;DHT22;33068;51.990;5.926;2023-04-24T01:08:18;9.40;99.90
47336;DHT22;33068;51.990;5.926;2023-04-24T01:10:52;9.30;99.90
47336;DHT22;33068;51.990;5.926;2023-04-24T01:13:21;9.30;99.90
47336;DHT22;33068;51.990;5.926;2023-04-24T01:16:09;9.30;99.90
47336;DHT22;33068;51.990;5.926;2023-04-24T01:18:49;9.30;99.90
47336;DHT22;33068;51.990;5.926;2023-04-24T01:21:35;9.60;99.90
47336;DHT22;33068;51.990;5.926;2023-04-24T01:24:26;9.40;99.90
47336;DHT22;33068;51.990;5.926;2023-04-24T01:26:57;9.40;99.90
47336;DHT22;33068;51.990;5.926;2023-04-24T01:29:41;9.40;99.90
47336;DHT22;33068;51.990;5.926;2023-04-24T01:32:18;9.40;99.90
47336;DHT22;33068;51.990;5.926;2023-04-24T01:35:10;9.40;99.90
47336;DHT22;33068;51.990;5.926;2023-04-24T01:37:43;9.40;99.90
47336;DHT22;33068;51.990;5.926;2023-04-24T01:40:29;9.40;99.90
47336;DHT22;33068;51.990;5.926;2023-04-24T01:43:20;9.40;99.90
47336;DHT22;33068;51.990;5.926;2023-04-24T01:46:03;9.40;99.90
47336;DHT22;33068;51.990;5.926;2023-04-24T01:51:42;9.40;99.90
47336;DHT22;33068;51.990;5.926;2023-04-24T01:54:46;9.50;99.90
47336;DHT22;33068;51.990;5.926;2023-04-24T02:01:43;9.40;99.90
47336;DHT22;33068;51.990;5.926;2023-04-24T02:04:52;9.00;99.90
47336;DHT22;33068;51.990;5.926;2023-04-24T02:07:45;9.40;99.90
47336;DHT22;33068;51.990;5.926;2023-04-24T02:10:49;9.30;99.90
47336;DHT22;33068;51.990;5.926;2023-04-24T02:17:44;9.40;99.90
47336;DHT22;33068;51.990;5.926;2023-04-24T02:23:58;9.30;99.90
47336;DHT22;33068;51.990;5.926;2023-04-24T02:27:25;9.40;99.90
47336;DHT22;33068;51.990;5.926;2023-04-24T02:31:01;9.30;99.90
47336;DHT22;33068;51.990;5.926;2023-04-24T02:33:43;9.40;99.90
47336;DHT22;33068;51.990;5.926;2023-04-24T02:36:51;9.30;99.90
47336;DHT22;33068;51.990;5.926;2023-04-24T02:39:26;9.30;99.90
47336;DHT22;33068;51.990;5.926;2023-04-24T02:46:28;9.30;99.90
47336;DHT22;33068;51.990;5.926;2023-04-24T02:49:31;9.40;99.90
47336;DHT22;33068;51.990;5.926;2023-04-24T02:52:38;9.60;99.90
47336;DHT22;33068;51.990;5.926;2023-04-24T02:56:26;9.30;99.90
47336;DHT22;33068;51.990;5.926;2023-04-24T02:59:08;9.60;99.90
47336;DHT22;33068;51.990;5.926;2023-04-24T03:01:43;9.30;99.90
47336;DHT22;33068;51.990;5.926;2023-04-24T03:04:28;9.20;99.90
47336;DHT22;33068;51.990;5.926;2023-04-24T03:07:13;8.90;99.90
47336;DHT22;33068;51.990;5.926;2023-04-24T03:10:31;8.90;99.90
47336;DHT22;33068;51.990;5.926;2023-04-24T03:13:31;9.30;99.90
47336;DHT22;33068;51.990;5.926;2023-04-24T03:16:47;9.30;99.90
47336;DHT22;33068;51.990;5.926;2023-04-24T03:21:11;9.30;99.90
47336;DHT22;33068;51.990;5.926;2023-04-24T03:23:09;9.20;99.90
47336;DHT22;33068;51.990;5.926;2023-04-24T03:25:43;9.20;99.90
47336;DHT22;33068;51.990;5.926;2023-04-24T03:28:40;9.20;99.90
47336;DHT22;33068;51.990;5.926;2023-04-24T03:31:31;9.20;99.90
47336;DHT22;33068;51.990;5.926;2023-04-24T03:37:22;9.20;99.90
47336;DHT22;33068;51.990;5.926;2023-04-24T03:40:08;9.20;99.90
47336;DHT22;33068;51.990;5.926;2023-04-24T03:43:19;9.20;99.90
47336;DHT22;33068;51.990;5.926;2023-04-24T03:50:17;9.20;99.90
47336;DHT22;33068;51.990;5.926;2023-04-24T03:53:39;9.20;99.90
47336;DHT22;33068;51.990;5.926;2023-04-24T03:59:59;9.10;99.90
47336;DHT22;33068;51.990;5.926;2023-04-24T04:02:29;9.10;99.90
47336;DHT22;33068;51.990;5.926;2023-04-24T04:04:58;9.00;99.90
47336;DHT22;33068;51.990;5.926;2023-04-24T04:07:36;9.00;99.90
47336;DHT22;33068;51.990;5.926;2023-04-24T04:10:20;9.00;99.90
47336;DHT22;33068;51.990;5.926;2023-04-24T04:13:10;9.20;99.90
47336;DHT22;33068;51.990;5.926;2023-04-24T04:16:08;9.00;99.90
47336;DHT22;33068;51.990;5.926;2023-04-24T04:18:52;8.90;99.90
47336;DHT22;33068;51.990;5.926;2023-04-24T04:21:43;8.90;99.90
47336;DHT22;33068;51.990;5.926;2023-04-24T04:25:02;8.90;99.90
47336;DHT22;33068;51.990;5.926;2023-04-24T04:28:07;8.70;99.90
47336;DHT22;33068;51.990;5.926;2023-04-24T04:30:39;8.80;99.90
47336;DHT22;33068;51.990;5.926;2023-04-24T04:33:18;8.90;99.90
47336;DHT22;33068;51.990;5.926;2023-04-24T04:36:03;8.70;99.90
47336;DHT22;33068;51.990;5.926;2023-04-24T04:38:47;8.80;99.90
47336;DHT22;33068;51.990;5.926;2023-04-24T04:42:08;8.70;99.90
47336;DHT22;33068;51.990;5.926;2023-04-24T05:57:37;8.80;99.90
47336;DHT22;33068;51.990;5.926;2023-04-24T06:00:21;8.80;99.90
47336;DHT22;33068;51.990;5.926;2023-04-24T06:03:17;8.60;99.90
47336;DHT22;33068;51.990;5.926;2023-04-24T06:05:51;8.90;99.90
47336;DHT22;33068;51.990;5.926;2023-04-24T06:08:31;8.90;99.90
47336;DHT22;33068;51.990;5.926;2023-04-24T06:11:01;9.00;99.90
47336;DHT22;33068;51.990;5.926;2023-04-24T06:13:52;9.00;99.90
47336;DHT22;33068;51.990;5.926;2023-04-24T06:17:13;9.00;99.90
47336;DHT22;33068;51.990;5.926;2023-04-24T06:20:44;9.20;99.90
47336;DHT22;33068;51.990;5.926;2023-04-24T06:23:32;9.00;99.90
47336;DHT22;33068;51.990;5.926;2023-04-24T06:26:13;9.00;99.90
47336;DHT22;33068;51.990;5.926;2023-04-24T06:29:09;9.10;99.90
47336;DHT22;33068;51.990;5.926;2023-04-24T06:31:36;9.10;99.90
47336;DHT22;33068;51.990;5.926;2023-04-24T06:34:09;9.10;99.90
47336;DHT22;33068;51.990;5.926;2023-04-24T06:36:39;9.40;99.90
47336;DHT22;33068;51.990;5.926;2023-04-24T06:39:10;9.20;99.90
47336;DHT22;33068;51.990;5.926;2023-04-24T06:41:40;9.30;99.90
47336;DHT22;33068;51.990;5.926;2023-04-24T06:44:28;9.30;99.90
47336;DHT22;33068;51.990;5.926;2023-04-24T06:47:33;9.30;99.90
47336;DHT22;33068;51.990;5.926;2023-04-24T06:50:15;9.30;99.90
47336;DHT22;33068;51.990;5.926;2023-04-24T06:52:46;9.30;99.90
47336;DHT22;33068;51.990;5.926;2023-04-24T06:55:13;9.30;99.90
47336;DHT22;33068;51.990;5.926;2023-04-24T06:57:45;9.30;99.90
47336;DHT22;33068;51.990;5.926;2023-04-24T07:00:19;9.30;99.90
47336;DHT22;33068;51.990;5.926;2023-04-24T07:03:09;9.40;99.90
47336;DHT22;33068;51.990;5.926;2023-04-24T07:05:43;9.50;99.90
47336;DHT22;33068;51.990;5.926;2023-04-24T07:08:18;9.50;99.90
47336;DHT22;33068;51.990;5.926;2023-04-24T07:10:53;9.50;99.90
47336;DHT22;33068;51.990;5.926;2023-04-24T07:13:43;9.50;99.90
47336;DHT22;33068;51.990;5.926;2023-04-24T07:26:59;9.30;99.90
47336;DHT22;33068;51.990;5.926;2023-04-24T07:30:44;9.30;99.90
47336;DHT22;33068;51.990;5.926;2023-04-24T07:58:32;9.00;99.90
47336;DHT22;33068;51.990;5.926;2023-04-24T09:04:27;8.60;99.90
47336;DHT22;33068;51.990;5.926;2023-04-24T09:06:56;8.70;99.90
47336;DHT22;33068;51.990;5.926;2023-04-24T09:09:24;8.70;99.90
47336;DHT22;33068;51.990;5.926;2023-04-24T09:11:52;9.10;99.90
47336;DHT22;33068;51.990;5.926;2023-04-24T09:14:21;8.80;99.90
47336;DHT22;33068;51.990;5.926;2023-04-24T09:16:49;8.80;99.90
47336;DHT22;33068;51.990;5.926;2023-04-24T09:19:16;8.70;99.90
47336;DHT22;33068;51.990;5.926;2023-04-24T09:21:53;8.90;99.90
47336;DHT22;33068;51.990;5.926;2023-04-24T09:24:21;8.70;99.90
47336;DHT22;33068;51.990;5.926;2023-04-24T09:26:56;8.80;99.90
47336;DHT22;33068;51.990;5.926;2023-04-24T09:29:24;8.90;99.90
47336;DHT22;33068;51.990;5.926;2023-04-24T09:31:51;8.90;99.90
47336;DHT22;33068;51.990;5.926;2023-04-24T09:34:21;8.80;99.90
47336;DHT22;33068;51.990;5.926;2023-04-24T09:36:54;8.90;99.90
47336;DHT22;33068;51.990;5.926;2023-04-24T09:39:21;9.00;99.90
47336;DHT22;33068;51.990;5.926;2023-04-24T09:41:50;9.10;99.90
47336;DHT22;33068;51.990;5.926;2023-04-24T09:44:18;9.00;99.90
47336;DHT22;33068;51.990;5.926;2023-04-24T09:46:50;9.00;99.90
47336;DHT22;33068;51.990;5.926;2023-04-24T09:49:22;9.00;99.90
47336;DHT22;33068;51.990;5.926;2023-04-24T09:52:03;9.10;99.90
47336;DHT22;33068;51.990;5.926;2023-04-24T09:54:30;9.30;99.90
47336;DHT22;33068;51.990;5.926;2023-04-24T09:56:57;9.40;99.90
47336;DHT22;33068;51.990;5.926;2023-04-24T09:59:25;9.60;99.90
47336;DHT22;33068;51.990;5.926;2023-04-24T10:01:55;9.70;99.90
47336;DHT22;33068;51.990;5.926;2023-04-24T10:04:25;9.80;99.90
47336;DHT22;33068;51.990;5.926;2023-04-24T10:06:55;9.80;99.90
47336;DHT22;33068;51.990;5.926;2023-04-24T10:09:24;9.70;99.90
47336;DHT22;33068;51.990;5.926;2023-04-24T10:11:52;9.80;99.90
47336;DHT22;33068;51.990;5.926;2023-04-24T10:14:21;9.90;99.90
47336;DHT22;33068;51.990;5.926;2023-04-24T10:16:50;10.00;99.90
47336;DHT22;33068;51.990;5.926;2023-04-24T10:19:22;10.10;99.90
47336;DHT22;33068;51.990;5.926;2023-04-24T10:21:54;10.30;99.90
47336;DHT22;33068;51.990;5.926;2023-04-24T10:24:21;10.50;99.90
47336;DHT22;33068;51.990;5.926;2023-04-24T10:26:49;10.90;99.90
47336;DHT22;33068;51.990;5.926;2023-04-24T10:29:17;11.50;99.90
47336;DHT22;33068;51.990;5.926;2023-04-24T10:31:45;11.90;99.90
47336;DHT22;33068;51.990;5.926;2023-04-24T10:34:13;12.10;99.90
47336;DHT22;33068;51.990;5.926;2023-04-24T10:36:45;12.30;99.90
47336;DHT22;33068;51.990;5.926;2023-04-24T10:39:14;11.80;99.90
47336;DHT22;33068;51.990;5.926;2023-04-24T10:41:44;11.60;99.90
47336;DHT22;33068;51.990;5.926;2023-04-24T10:44:13;11.50;99.90
47336;DHT22;33068;51.990;5.926;2023-04-24T10:46:44;11.50;99.90
47336;DHT22;33068;51.990;5.926;2023-04-24T10:49:11;11.30;99.90
47336;DHT22;33068;51.990;5.926;2023-04-24T10:51:47;11.10;99.90
47336;DHT22;33068;51.990;5.926;2023-04-24T10:54:26;11.00;99.90
47336;DHT22;33068;51.990;5.926;2023-04-24T10:57:26;10.80;99.90
47336;DHT22;33068;51.990;5.926;2023-04-24T11:00:13;11.00;99.90
47336;DHT22;33068;51.990;5.926;2023-04-24T11:02:41;11.00;99.90
47336;DHT22;33068;51.990;5.926;2023-04-24T11:05:15;11.00;99.90
47336;DHT22;33068;51.990;5.926;2023-04-24T11:08:12;11.10;99.90
47336;DHT22;33068;51.990;5.926;2023-04-24T11:10:44;11.10;99.90
47336;DHT22;33068;51.990;5.926;2023-04-24T11:13:15;11.10;99.90
47336;DHT22;33068;51.990;5.926;2023-04-24T11:15:43;10.80;99.90
47336;DHT22;33068;51.990;5.926;2023-04-24T11:18:14;10.50;99.90
47336;DHT22;33068;51.990;5.926;2023-04-24T11:20:45;10.30;99.90
47336;DHT22;33068;51.990;5.926;2023-04-24T11:23:13;10.20;99.90
47336;DHT22;33068;51.990;5.926;2023-04-24T11:25:43;10.40;99.90
47336;DHT22;33068;51.990;5.926;2023-04-24T11:28:14;10.40;99.90
47336;DHT22;33068;51.990;5.926;2023-04-24T11:30:43;10.60;99.90
47336;DHT22;33068;51.990;5.926;2023-04-24T11:33:11;10.80;99.90
47336;DHT22;33068;51.990;5.926;2023-04-24T11:35:40;10.80;99.90
47336;DHT22;33068;51.990;5.926;2023-04-24T11:38:07;10.60;99.90
47336;DHT22;33068;51.990;5.926;2023-04-24T11:40:38;10.50;99.90
47336;DHT22;33068;51.990;5.926;2023-04-24T11:43:07;10.70;99.90
47336;DHT22;33068;51.990;5.926;2023-04-24T11:45:35;10.80;99.90
47336;DHT22;33068;51.990;5.926;2023-04-24T11:48:03;10.90;99.90
47336;DHT22;33068;51.990;5.926;2023-04-24T11:50:30;10.90;99.90
47336;DHT22;33068;51.990;5.926;2023-04-24T11:52:57;10.90;99.90
47336;DHT22;33068;51.990;5.926;2023-04-24T11:55:27;10.90;99.90
47336;DHT22;33068;51.990;5.926;2023-04-24T11:57:56;10.80;99.90
47336;DHT22;33068;51.990;5.926;2023-04-24T12:00:26;10.80;99.90
47336;DHT22;33068;51.990;5.926;2023-04-24T12:03:04;10.80;99.90
47336;DHT22;33068;51.990;5.926;2023-04-24T12:05:41;10.50;99.90
47336;DHT22;33068;51.990;5.926;2023-04-24T12:08:10;10.30;99.90
47336;DHT22;33068;51.990;5.926;2023-04-24T12:10:37;10.20;99.90
47336;DHT22;33068;51.990;5.926;2023-04-24T12:13:48;10.40;99.90
47336;DHT22;33068;51.990;5.926;2023-04-24T12:16:49;9.70;99.90
47336;DHT22;33068;51.990;5.926;2023-04-24T12:19:20;9.90;99.90
47336;DHT22;33068;51.990;5.926;2023-04-24T12:22:00;10.10;99.90
47336;DHT22;33068;51.990;5.926;2023-04-24T12:24:27;10.20;99.90
47336;DHT22;33068;51.990;5.926;2023-04-24T12:26:54;10.40;99.90
47336;DHT22;33068;51.990;5.926;2023-04-24T12:29:22;10.30;99.90
47336;DHT22;33068;51.990;5.926;2023-04-24T12:31:53;10.50;99.90
47336;DHT22;33068;51.990;5.926;2023-04-24T12:34:21;10.60;99.90
47336;DHT22;33068;51.990;5.926;2023-04-24T12:36:49;10.70;99.90
47336;DHT22;33068;51.990;5.926;2023-04-24T12:39:17;11.00;99.90
47336;DHT22;33068;51.990;5.926;2023-04-24T12:41:54;11.20;99.90
47336;DHT22;33068;51.990;5.926;2023-04-24T12:44:29;11.50;99.90
47336;DHT22;33068;51.990;5.926;2023-04-24T12:46:58;11.60;99.90
47336;DHT22;33068;51.990;5.926;2023-04-24T12:49:25;11.70;99.90
47336;DHT22;33068;51.990;5.926;2023-04-24T12:51:53;11.80;99.90
47336;DHT22;33068;51.990;5.926;2023-04-24T12:54:20;11.40;99.90
47336;DHT22;33068;51.990;5.926;2023-04-24T12:56:48;11.30;99.90
47336;DHT22;33068;51.990;5.926;2023-04-24T12:59:18;11.00;99.90
47336;DHT22;33068;51.990;5.926;2023-04-24T13:01:47;10.90;99.90
47336;DHT22;33068;51.990;5.926;2023-04-24T13:04:17;11.10;99.90
47336;DHT22;33068;51.990;5.926;2023-04-24T13:06:44;11.30;99.90
47336;DHT22;33068;51.990;5.926;2023-04-24T13:09:11;11.50;99.90
47336;DHT22;33068;51.990;5.926;2023-04-24T13:11:38;11.50;99.90
47336;DHT22;33068;51.990;5.926;2023-04-24T13:14:06;11.80;99.90
47336;DHT22;33068;51.990;5.926;2023-04-24T13:16:33;11.90;99.90
47336;DHT22;33068;51.990;5.926;2023-04-24T13:19:03;11.50;99.90
47336;DHT22;33068;51.990;5.926;2023-04-24T13:21:32;11.40;99.90
47336;DHT22;33068;51.990;5.926;2023-04-24T13:23:59;11.60;99.90
47336;DHT22;33068;51.990;5.926;2023-04-24T13:26:26;11.50;99.90
47336;DHT22;33068;51.990;5.926;2023-04-24T13:28:53;11.50;99.90
47336;DHT22;33068;51.990;5.926;2023-04-24T13:31:20;11.00;99.90
47336;DHT22;33068;51.990;5.926;2023-04-24T13:33:48;10.90;99.90
47336;DHT22;33068;51.990;5.926;2023-04-24T13:36:18;10.80;99.90
47336;DHT22;33068;51.990;5.926;2023-04-24T13:38:46;10.60;99.90
47336;DHT22;33068;51.990;5.926;2023-04-24T13:41:14;10.60;99.90
47336;DHT22;33068;51.990;5.926;2023-04-24T13:43:41;10.60;99.90
47336;DHT22;33068;51.990;5.926;2023-04-24T13:46:08;10.50;99.90
47336;DHT22;33068;51.990;5.926;2023-04-24T13:48:36;10.60;99.90
47336;DHT22;33068;51.990;5.926;2023-04-24T13:51:03;10.50;99.90
47336;DHT22;33068;51.990;5.926;2023-04-24T13:53:30;10.50;99.90
47336;DHT22;33068;51.990;5.926;2023-04-24T13:55:59;10.50;99.90
47336;DHT22;33068;51.990;5.926;2023-04-24T13:58:26;10.40;99.90
47336;DHT22;33068;51.990;5.926;2023-04-24T14:00:53;10.40;99.90
47336;DHT22;33068;51.990;5.926;2023-04-24T14:03:21;10.40;99.90
47336;DHT22;33068;51.990;5.926;2023-04-24T14:05:50;10.70;99.90
47336;DHT22;33068;51.990;5.926;2023-04-24T14:08:22;11.40;99.90
47336;DHT22;33068;51.990;5.926;2023-04-24T14:11:04;11.90;99.90
47336;DHT22;33068;51.990;5.926;2023-04-24T14:13:36;11.90;99.90
47336;DHT22;33068;51.990;5.926;2023-04-24T14:16:25;11.70;99.90
47336;DHT22;33068;51.990;5.926;2023-04-24T14:19:03;11.60;99.90
47336;DHT22;33068;51.990;5.926;2023-04-24T14:21:37;11.60;99.90
47336;DHT22;33068;51.990;5.926;2023-04-24T14:24:07;11.50;99.90
47336;DHT22;33068;51.990;5.926;2023-04-24T14:26:41;11.60;99.90
47336;DHT22;33068;51.990;5.926;2023-04-24T14:29:08;12.10;99.90
47336;DHT22;33068;51.990;5.926;2023-04-24T14:31:54;12.60;99.90
47336;DHT22;33068;51.990;5.926;2023-04-24T14:34:24;13.10;99.90
47336;DHT22;33068;51.990;5.926;2023-04-24T14:36:52;13.30;99.90
47336;DHT22;33068;51.990;5.926;2023-04-24T14:39:30;13.20;99.90
47336;DHT22;33068;51.990;5.926;2023-04-24T14:42:03;12.80;99.90
47336;DHT22;33068;51.990;5.926;2023-04-24T14:44:30;12.40;99.90
47336;DHT22;33068;51.990;5.926;2023-04-24T14:46:58;11.90;99.90
47336;DHT22;33068;51.990;5.926;2023-04-24T14:49:28;11.60;99.90
47336;DHT22;33068;51.990;5.926;2023-04-24T14:51:57;11.50;99.90
47336;DHT22;33068;51.990;5.926;2023-04-24T14:54:25;11.30;99.90
47336;DHT22;33068;51.990;5.926;2023-04-24T14:59:49;11.40;99.90
47336;DHT22;33068;51.990;5.926;2023-04-24T15:02:18;11.50;99.90
47336;DHT22;33068;51.990;5.926;2023-04-24T15:04:46;11.60;99.90
47336;DHT22;33068;51.990;5.926;2023-04-24T15:07:19;11.40;99.90
47336;DHT22;33068;51.990;5.926;2023-04-24T15:09:46;11.30;99.90
47336;DHT22;33068;51.990;5.926;2023-04-24T15:12:15;11.50;99.90
47336;DHT22;33068;51.990;5.926;2023-04-24T15:14:43;11.50;99.90
47336;DHT22;33068;51.990;5.926;2023-04-24T15:17:12;11.50;99.90
47336;DHT22;33068;51.990;5.926;2023-04-24T15:19:42;11.50;99.90
47336;DHT22;33068;51.990;5.926;2023-04-24T15:22:10;11.20;99.90
47336;DHT22;33068;51.990;5.926;2023-04-24T15:24:41;11.40;99.90
47336;DHT22;33068;51.990;5.926;2023-04-24T15:27:11;11.50;99.90
47336;DHT22;33068;51.990;5.926;2023-04-24T15:29:42;11.40;99.90
47336;DHT22;33068;51.990;5.926;2023-04-24T15:32:11;11.30;99.90
47336;DHT22;33068;51.990;5.926;2023-04-24T15:34:45;11.10;99.90
47336;DHT22;33068;51.990;5.926;2023-04-24T15:37:26;11.10;99.90
47336;DHT22;33068;51.990;5.926;2023-04-24T15:40:51;11.40;99.90
47336;DHT22;33068;51.990;5.926;2023-04-24T15:43:54;11.50;99.90
47336;DHT22;33068;51.990;5.926;2023-04-24T15:47:16;11.40;99.90
47336;DHT22;33068;51.990;5.926;2023-04-24T15:49:51;12.20;99.90
47336;DHT22;33068;51.990;5.926;2023-04-24T15:52:22;12.90;99.90
47336;DHT22;33068;51.990;5.926;2023-04-24T15:55:52;12.70;99.90
47336;DHT22;33068;51.990;5.926;2023-04-24T15:58:19;12.30;99.90
47336;DHT22;33068;51.990;5.926;2023-04-24T16:00:49;11.60;99.90
47336;DHT22;33068;51.990;5.926;2023-04-24T16:03:20;11.60;99.90
47336;DHT22;33068;51.990;5.926;2023-04-24T16:05:48;11.40;99.90
47336;DHT22;33068;51.990;5.926;2023-04-24T16:08:15;11.20;99.90
47336;DHT22;33068;51.990;5.926;2023-04-24T16:10:42;11.00;99.90
47336;DHT22;33068;51.990;5.926;2023-04-24T16:13:11;10.90;99.90
47336;DHT22;33068;51.990;5.926;2023-04-24T16:15:38;10.70;99.90
47336;DHT22;33068;51.990;5.926;2023-04-24T16:18:06;10.70;99.90
47336;DHT22;33068;51.990;5.926;2023-04-24T16:20:34;10.60;99.90
47336;DHT22;33068;51.990;5.926;2023-04-24T16:23:02;10.50;99.90
47336;DHT22;33068;51.990;5.926;2023-04-24T16:25:29;10.50;99.90
47336;DHT22;33068;51.990;5.926;2023-04-24T16:27:56;10.40;99.90
47336;DHT22;33068;51.990;5.926;2023-04-24T16:30:23;10.30;99.90
47336;DHT22;33068;51.990;5.926;2023-04-24T16:32:51;10.20;99.90
47336;DHT22;33068;51.990;5.926;2023-04-24T16:35:18;10.40;99.90
47336;DHT22;33068;51.990;5.926;2023-04-24T16:37:47;10.60;99.90
47336;DHT22;33068;51.990;5.926;2023-04-24T16:40:14;11.30;99.90
47336;DHT22;33068;51.990;5.926;2023-04-24T16:42:41;11.80;99.90
47336;DHT22;33068;51.990;5.926;2023-04-24T16:45:09;11.70;99.90
47336;DHT22;33068;51.990;5.926;2023-04-24T16:47:36;11.20;99.90
47336;DHT22;33068;51.990;5.926;2023-04-24T16:50:07;11.10;99.90
47336;DHT22;33068;51.990;5.926;2023-04-24T16:52:34;10.90;99.90
47336;DHT22;33068;51.990;5.926;2023-04-24T16:55:03;10.60;99.90
47336;DHT22;33068;51.990;5.926;2023-04-24T16:57:30;10.50;99.90
47336;DHT22;33068;51.990;5.926;2023-04-24T16:59:57;10.50;99.90
47336;DHT22;33068;51.990;5.926;2023-04-24T17:02:27;10.60;99.90
47336;DHT22;33068;51.990;5.926;2023-04-24T17:04:54;10.60;99.90
47336;DHT22;33068;51.990;5.926;2023-04-24T17:07:22;10.60;99.90
47336;DHT22;33068;51.990;5.926;2023-04-24T17:09:52;10.60;99.90
47336;DHT22;33068;51.990;5.926;2023-04-24T17:12:20;10.50;99.90
47336;DHT22;33068;51.990;5.926;2023-04-24T17:14:47;10.30;99.90
47336;DHT22;33068;51.990;5.926;2023-04-24T17:17:14;10.60;99.90
47336;DHT22;33068;51.990;5.926;2023-04-24T17:19:43;10.40;99.90
47336;DHT22;33068;51.990;5.926;2023-04-24T17:22:10;10.40;99.90
47336;DHT22;33068;51.990;5.926;2023-04-24T17:24:37;10.20;99.90
47336;DHT22;33068;51.990;5.926;2023-04-24T17:27:04;10.20;99.90
47336;DHT22;33068;51.990;5.926;2023-04-24T17:29:33;10.10;99.90
47336;DHT22;33068;51.990;5.926;2023-04-24T17:32:00;10.00;99.90
47336;DHT22;33068;51.990;5.926;2023-04-24T17:34:27;9.90;99.90
47336;DHT22;33068;51.990;5.926;2023-04-24T17:36:54;9.80;99.90
47336;DHT22;33068;51.990;5.926;2023-04-24T17:39:22;9.80;99.90
47336;DHT22;33068;51.990;5.926;2023-04-24T17:41:49;9.90;99.90
47336;DHT22;33068;51.990;5.926;2023-04-24T17:44:16;9.90;99.90
47336;DHT22;33068;51.990;5.926;2023-04-24T17:46:47;9.80;99.90
47336;DHT22;33068;51.990;5.926;2023-04-24T17:49:14;9.90;99.90
47336;DHT22;33068;51.990;5.926;2023-04-24T17:51:41;9.70;99.90
47336;DHT22;33068;51.990;5.926;2023-04-24T17:54:08;9.60;99.90
47336;DHT22;33068;51.990;5.926;2023-04-24T17:56:36;9.50;99.90
47336;DHT22;33068;51.990;5.926;2023-04-24T17:59:03;9.50;99.90
47336;DHT22;33068;51.990;5.926;2023-04-24T18:01:30;9.50;99.90
47336;DHT22;33068;51.990;5.926;2023-04-24T18:03:58;9.40;99.90
47336;DHT22;33068;51.990;5.926;2023-04-24T18:06:25;9.40;99.90
47336;DHT22;33068;51.990;5.926;2023-04-24T18:08:53;9.50;99.90
47336;DHT22;33068;51.990;5.926;2023-04-24T18:11:20;9.40;99.90
47336;DHT22;33068;51.990;5.926;2023-04-24T18:13:48;9.40;99.90
47336;DHT22;33068;51.990;5.926;2023-04-24T18:16:15;9.40;99.90
47336;DHT22;33068;51.990;5.926;2023-04-24T18:18:45;9.40;99.90
47336;DHT22;33068;51.990;5.926;2023-04-24T18:21:13;9.30;99.90
47336;DHT22;33068;51.990;5.926;2023-04-24T18:23:40;9.30;99.90
47336;DHT22;33068;51.990;5.926;2023-04-24T18:26:07;9.40;99.90
47336;DHT22;33068;51.990;5.926;2023-04-24T18:28:34;9.00;99.90
47336;DHT22;33068;51.990;5.926;2023-04-24T18:31:02;9.00;99.90
47336;DHT22;33068;51.990;5.926;2023-04-24T18:33:29;8.90;99.90
47336;DHT22;33068;51.990;5.926;2023-04-24T18:35:56;8.80;99.90
47336;DHT22;33068;51.990;5.926;2023-04-24T18:38:25;8.70;99.90
47336;DHT22;33068;51.990;5.926;2023-04-24T18:40:52;8.70;99.90
47336;DHT22;33068;51.990;5.926;2023-04-24T18:43:19;8.80;99.90
47336;DHT22;33068;51.990;5.926;2023-04-24T18:45:46;8.50;99.90
47336;DHT22;33068;51.990;5.926;2023-04-24T18:48:13;8.40;99.90
47336;DHT22;33068;51.990;5.926;2023-04-24T18:50:40;8.40;99.90
47336;DHT22;33068;51.990;5.926;2023-04-24T18:53:07;8.30;99.90
47336;DHT22;33068;51.990;5.926;2023-04-24T18:55:39;8.50;99.90
47336;DHT22;33068;51.990;5.926;2023-04-24T18:58:06;8.50;99.90
47336;DHT22;33068;51.990;5.926;2023-04-24T19:00:33;8.20;99.90
47336;DHT22;33068;51.990;5.926;2023-04-24T19:03:00;8.20;99.90
47336;DHT22;33068;51.990;5.926;2023-04-24T19:05:27;8.20;99.90
47336;DHT22;33068;51.990;5.926;2023-04-24T19:07:54;8.20;99.90
47336;DHT22;33068;51.990;5.926;2023-04-24T19:10:21;8.20;99.90
47336;DHT22;33068;51.990;5.926;2023-04-24T19:12:50;8.10;99.90
47336;DHT22;33068;51.990;5.926;2023-04-24T19:15:23;8.10;99.90
47336;DHT22;33068;51.990;5.926;2023-04-24T19:17:50;8.10;99.90
47336;DHT22;33068;51.990;5.926;2023-04-24T19:20:17;8.10;99.90
47336;DHT22;33068;51.990;5.926;2023-04-24T19:22:45;8.10;99.90
47336;DHT22;33068;51.990;5.926;2023-04-24T19:25:12;8.10;99.90
47336;DHT22;33068;51.990;5.926;2023-04-24T19:27:42;8.00;99.90
47336;DHT22;33068;51.990;5.926;2023-04-24T19:30:11;8.40;99.90
47336;DHT22;33068;51.990;5.926;2023-04-24T19:32:38;8.00;99.90
47336;DHT22;33068;51.990;5.926;2023-04-24T19:35:05;8.10;99.90
47336;DHT22;33068;51.990;5.926;2023-04-24T19:37:33;8.10;99.90
47336;DHT22;33068;51.990;5.926;2023-04-24T19:40:00;8.10;99.90
47336;DHT22;33068;51.990;5.926;2023-04-24T19:42:28;8.10;99.90
47336;DHT22;33068;51.990;5.926;2023-04-24T19:44:56;8.00;99.90
47336;DHT22;33068;51.990;5.926;2023-04-24T19:47:24;8.10;99.90
47336;DHT22;33068;51.990;5.926;2023-04-24T19:49:51;8.10;99.90
47336;DHT22;33068;51.990;5.926;2023-04-24T19:52:18;8.00;99.90
47336;DHT22;33068;51.990;5.926;2023-04-24T19:54:46;8.10;99.90
47336;DHT22;33068;51.990;5.926;2023-04-24T19:57:13;8.00;99.90
47336;DHT22;33068;51.990;5.926;2023-04-24T19:59:40;8.00;99.90
47336;DHT22;33068;51.990;5.926;2023-04-24T20:02:08;8.00;99.90
47336;DHT22;33068;51.990;5.926;2023-04-24T20:04:37;7.90;99.90
47336;DHT22;33068;51.990;5.926;2023-04-24T20:07:04;7.90;99.90